Time;durP1;ratioP1;P1;durP2;ratioP2;P2;SDS_P1;SDS_P2;PMS_P1;PMS_P2;Temp;Humidity;BMP_temperature;BMP_pressure;BME280_temperature;BME280_humidity;BME280_pressure;Samples;Min_cycle;Max_cycle;Signal;HPM_P1;HPM_P2
2022/09/24 00:01:42;;;;;;;9.07;8.10;;;14.00;99.90;;;;;;5001824;28;20254;-60
2022/09/24 00:04:13;;;;;;;8.53;7.73;;;14.00;99.90;;;;;;5003135;28;20584;-61
2022/09/24 00:06:43;;;;;;;9.17;7.97;;;14.00;99.90;;;;;;5000649;28;20228;-61
2022/09/24 00:09:13;;;;;;;9.00;8.10;;;14.00;99.90;;;;;;5002143;28;20745;-60
2022/09/24 00:11:42;;;;;;;9.17;8.27;;;14.00;99.90;;;;;;5002057;28;20229;-60
2022/09/24 00:14:10;;;;;;;8.80;7.93;;;14.00;99.90;;;;;;5004373;28;20232;-59
2022/09/24 00:16:40;;;;;;;9.40;8.50;;;14.00;99.90;;;;;;5001251;28;20221;-60
2022/09/24 00:19:09;;;;;;;8.90;8.00;;;14.00;99.90;;;;;;5002239;28;20217;-61
2022/09/24 00:21:39;;;;;;;8.60;7.80;;;14.00;99.90;;;;;;5002570;28;20237;-59
2022/09/24 00:24:10;;;;;;;8.30;7.53;;;14.10;99.90;;;;;;5001426;28;20272;-59
2022/09/24 00:26:49;;;;;;;9.83;8.63;;;14.10;99.90;;;;;;5000708;28;20228;-60
2022/09/24 00:29:19;;;;;;;8.83;7.93;;;14.10;99.90;;;;;;5001603;28;20241;-61
2022/09/24 00:31:47;;;;;;;8.70;7.87;;;14.10;99.90;;;;;;5002222;28;20276;-61
2022/09/24 00:34:16;;;;;;;9.80;8.80;;;14.00;99.90;;;;;;5003410;28;20225;-61
2022/09/24 00:36:46;;;;;;;11.50;9.07;;;14.00;99.90;;;;;;4998232;28;20225;-60
2022/09/24 00:39:14;;;;;;;11.23;8.70;;;13.80;99.90;;;;;;5001661;28;20221;-60
2022/09/24 00:41:47;;;;;;;10.80;9.73;;;13.90;99.90;;;;;;5002228;28;20287;-61
2022/09/24 00:44:52;;;;;;;9.40;8.50;;;13.90;99.90;;;;;;5002441;28;20224;-60
2022/09/24 00:47:37;;;;;;;10.47;9.47;;;14.00;99.90;;;;;;5000180;28;20586;-61
2022/09/24 00:50:10;;;;;;;10.67;9.53;;;13.90;99.90;;;;;;5001040;28;20244;-61
2022/09/24 00:52:45;;;;;;;9.93;8.93;;;13.80;99.90;;;;;;5002701;28;20252;-60
2022/09/24 00:55:14;;;;;;;10.33;9.33;;;13.70;99.90;;;;;;4998056;28;20236;-60
2022/09/24 00:57:43;;;;;;;11.60;9.77;;;13.60;99.90;;;;;;5001501;28;21040;-61
2022/09/24 01:00:13;;;;;;;10.43;9.47;;;13.70;99.90;;;;;;5000764;28;20267;-60
2022/09/24 01:02:46;;;;;;;10.80;9.60;;;13.80;99.90;;;;;;5002991;28;20229;-59
2022/09/24 01:05:14;;;;;;;10.53;9.53;;;13.70;99.90;;;;;;4998339;28;20241;-60
2022/09/24 01:07:44;;;;;;;11.97;10.77;;;13.80;99.90;;;;;;5000937;28;20276;-59
2022/09/24 01:10:46;;;;;;;10.50;9.50;;;13.80;99.90;;;;;;5000955;28;20233;-59
2022/09/24 01:13:10;;;;;;;10.37;9.27;;;13.90;99.90;;;;;;4998642;28;20750;-61
2022/09/24 01:15:46;;;;;;;12.03;10.20;;;13.70;99.90;;;;;;4997797;28;20618;-60
2022/09/24 01:18:25;;;;;;;11.17;9.80;;;13.60;99.90;;;;;;5002470;28;20225;-60
2022/09/24 01:21:20;;;;;;;12.03;10.30;;;13.60;99.90;;;;;;5001135;28;20806;-60
2022/09/24 01:24:28;;;;;;;11.80;10.07;;;13.60;99.90;;;;;;4997401;28;20239;-62
2022/09/24 01:27:05;;;;;;;11.57;10.47;;;13.60;99.90;;;;;;4997585;28;20242;-61
2022/09/24 01:29:45;;;;;;;11.93;10.63;;;13.50;99.90;;;;;;5000029;28;20252;-61
2022/09/24 01:32:19;;;;;;;12.57;11.33;;;13.60;99.90;;;;;;4998627;28;20237;-60
2022/09/24 01:34:52;;;;;;;13.20;11.90;;;13.50;99.90;;;;;;4999311;28;20336;-61
2022/09/24 01:37:23;;;;;;;13.77;12.03;;;13.50;99.90;;;;;;4999430;28;20855;-62
2022/09/24 01:39:53;;;;;;;13.90;12.50;;;13.40;99.90;;;;;;5000904;28;20236;-60
2022/09/24 01:42:23;;;;;;;14.33;12.33;;;13.50;99.90;;;;;;5001116;28;20615;-59
2022/09/24 01:44:54;;;;;;;14.03;12.13;;;13.40;99.90;;;;;;4997676;28;20611;-61
2022/09/24 01:47:31;;;;;;;13.30;12.00;;;13.50;99.90;;;;;;5001687;28;20238;-61
2022/09/24 01:50:02;;;;;;;12.90;11.60;;;13.40;99.90;;;;;;5000844;28;20240;-61
2022/09/24 01:52:38;;;;;;;15.97;13.40;;;13.50;99.90;;;;;;5000553;28;20233;-61
2022/09/24 01:55:10;;;;;;;14.17;12.40;;;13.60;99.90;;;;;;4997373;28;20237;-61
2022/09/24 01:57:42;;;;;;;15.13;13.23;;;13.70;99.90;;;;;;5001431;28;20225;-60
2022/09/24 02:00:14;;;;;;;14.60;13.07;;;13.60;99.90;;;;;;5001884;28;20240;-61
2022/09/24 02:02:46;;;;;;;14.70;13.10;;;13.50;99.90;;;;;;5000340;28;20322;-61
2022/09/24 02:05:22;;;;;;;14.93;13.43;;;13.40;99.90;;;;;;4997445;28;20229;-60
2022/09/24 02:07:57;;;;;;;15.20;13.53;;;13.30;99.90;;;;;;5000337;28;20262;-61
2022/09/24 02:10:32;;;;;;;15.10;13.57;;;13.50;99.90;;;;;;4999866;28;20248;-61
2022/09/24 02:13:06;;;;;;;15.07;13.57;;;13.50;99.90;;;;;;5001306;28;20957;-61
2022/09/24 02:15:41;;;;;;;16.77;14.97;;;13.50;99.90;;;;;;4997787;28;20232;-61
2022/09/24 02:18:14;;;;;;;16.07;14.43;;;13.40;99.90;;;;;;5000467;28;20275;-61
2022/09/24 02:20:43;;;;;;;18.07;16.17;;;13.30;99.90;;;;;;5000354;28;20230;-61
2022/09/24 02:23:14;;;;;;;17.27;15.50;;;13.30;99.90;;;;;;5001211;28;20236;-60
2022/09/24 02:25:47;;;;;;;17.27;15.20;;;13.20;99.90;;;;;;4996031;28;20280;-61
2022/09/24 02:28:16;;;;;;;17.63;15.83;;;13.40;99.90;;;;;;5000984;28;20605;-61
2022/09/24 02:30:50;;;;;;;17.63;15.83;;;13.40;99.90;;;;;;4999627;28;20241;-61
2022/09/24 02:36:07;;;;;;;17.30;15.53;;;13.50;99.90;;;;;;4997455;28;20228;-62
2022/09/24 02:38:35;;;;;;;17.50;15.70;;;13.50;99.90;;;;;;5000884;28;20283;-61
2022/09/24 02:41:03;;;;;;;17.73;15.97;;;13.30;99.90;;;;;;5000025;28;20291;-62
2022/09/24 02:43:34;;;;;;;16.57;14.87;;;13.40;99.90;;;;;;4998342;28;20240;-61
2022/09/24 02:46:04;;;;;;;17.90;16.03;;;13.40;99.90;;;;;;4995522;28;20329;-61
2022/09/24 02:48:32;;;;;;;17.67;15.77;;;13.40;99.90;;;;;;4999896;28;20233;-61
2022/09/24 02:51:02;;;;;;;18.47;16.43;;;13.30;99.90;;;;;;5000345;28;20927;-61
2022/09/24 02:53:31;;;;;;;17.03;15.33;;;13.30;99.90;;;;;;5001608;28;20229;-62
2022/09/24 02:56:00;;;;;;;19.40;15.50;;;13.30;99.90;;;;;;4997149;28;20310;-61
2022/09/24 02:58:29;;;;;;;18.83;16.80;;;13.30;99.90;;;;;;4999426;28;20240;-61
2022/09/24 03:00:57;;;;;;;17.93;15.93;;;13.30;99.90;;;;;;5006207;28;20248;-62
2022/09/24 03:03:27;;;;;;;19.60;17.57;;;13.30;99.90;;;;;;5013643;28;20592;-62
2022/09/24 03:05:55;;;;;;;19.20;17.17;;;13.30;99.90;;;;;;5009434;28;20233;-62
2022/09/24 03:08:25;;;;;;;18.97;17.07;;;13.20;99.90;;;;;;5013297;28;20237;-62
2022/09/24 03:10:54;;;;;;;19.97;17.87;;;13.30;99.90;;;;;;5003377;28;20597;-62
2022/09/24 03:13:23;;;;;;;20.17;18.17;;;13.40;99.90;;;;;;5010394;28;20220;-62
2022/09/24 03:15:51;;;;;;;19.53;17.53;;;13.30;99.90;;;;;;5009737;28;20233;-62
2022/09/24 03:18:19;;;;;;;18.20;16.37;;;13.30;99.90;;;;;;5013513;28;20229;-62
2022/09/24 03:20:56;;;;;;;19.70;17.60;;;13.20;99.90;;;;;;5007736;28;20277;-62
2022/09/24 03:23:24;;;;;;;19.60;17.67;;;13.30;99.90;;;;;;5005116;28;20236;-62
2022/09/24 03:25:52;;;;;;;19.90;17.77;;;13.30;99.90;;;;;;5001149;28;20229;-62
2022/09/24 03:28:21;;;;;;;20.70;18.50;;;13.30;99.90;;;;;;5013044;28;20238;-63
2022/09/24 03:31:00;;;;;;;22.20;19.20;;;13.20;99.90;;;;;;5004154;28;20633;-63
2022/09/24 03:33:31;;;;;;;20.30;18.13;;;13.20;99.90;;;;;;5012791;28;20250;-61
2022/09/24 03:36:02;;;;;;;19.33;17.33;;;13.30;99.90;;;;;;5007313;28;20754;-62
2022/09/24 03:38:30;;;;;;;20.47;18.33;;;13.30;99.90;;;;;;5012467;28;20235;-62
2022/09/24 03:40:59;;;;;;;21.13;18.83;;;13.30;99.90;;;;;;5007731;28;20228;-62
2022/09/24 03:43:27;;;;;;;20.13;18.00;;;13.30;99.90;;;;;;5009315;28;20267;-62
2022/09/24 03:45:55;;;;;;;20.27;18.13;;;13.20;99.90;;;;;;5009210;28;20259;-62
2022/09/24 03:48:25;;;;;;;19.67;17.63;;;13.30;99.90;;;;;;5013027;28;20220;-62
2022/09/24 03:50:54;;;;;;;20.87;18.77;;;13.40;99.90;;;;;;4996166;28;20271;-62
2022/09/24 03:53:24;;;;;;;19.93;17.83;;;13.30;99.90;;;;;;5012759;28;20324;-62
2022/09/24 03:55:55;;;;;;;21.53;19.23;;;13.20;99.90;;;;;;5007843;28;20247;-62
2022/09/24 03:58:24;;;;;;;21.43;19.23;;;13.20;99.90;;;;;;5004707;28;20229;-63
2022/09/24 04:00:53;;;;;;;22.80;20.57;;;13.20;99.90;;;;;;5012085;28;20248;-63
2022/09/24 04:03:21;;;;;;;22.50;20.17;;;13.20;99.90;;;;;;5012972;28;20225;-62
2022/09/24 04:05:50;;;;;;;22.87;20.47;;;13.10;99.90;;;;;;5009088;28;20239;-62
2022/09/24 04:08:19;;;;;;;21.33;19.23;;;13.10;99.90;;;;;;5009437;28;20243;-62
2022/09/24 04:10:49;;;;;;;24.03;21.53;;;13.10;99.90;;;;;;5005478;28;20236;-62
2022/09/24 04:13:18;;;;;;;24.60;22.07;;;13.10;99.90;;;;;;5009237;28;20243;-64
2022/09/24 04:15:47;;;;;;;25.07;22.50;;;13.10;99.90;;;;;;5008512;28;20244;-63
2022/09/24 04:18:16;;;;;;;24.47;21.97;;;13.10;99.90;;;;;;5004039;28;20231;-64
2022/09/24 04:20:44;;;;;;;24.67;22.13;;;13.10;99.90;;;;;;5002571;28;20228;-64
2022/09/24 04:23:12;;;;;;;25.40;22.70;;;13.10;99.90;;;;;;5012829;28;20243;-63
2022/09/24 04:25:40;;;;;;;25.50;22.70;;;13.10;99.90;;;;;;5008700;28;20231;-63
2022/09/24 04:28:10;;;;;;;23.93;21.27;;;13.00;99.90;;;;;;5012200;28;20245;-63
2022/09/24 04:30:39;;;;;;;23.40;20.23;;;13.10;99.90;;;;;;5009967;28;20236;-63
2022/09/24 04:33:08;;;;;;;24.17;21.67;;;13.10;99.90;;;;;;5012470;28;20632;-63
2022/09/24 04:35:36;;;;;;;25.87;23.13;;;13.10;99.90;;;;;;5008933;28;20224;-63
2022/09/24 04:38:05;;;;;;;28.77;25.47;;;13.10;99.90;;;;;;5011950;28;20773;-63
2022/09/24 04:40:33;;;;;;;28.37;25.37;;;13.00;99.90;;;;;;5005585;28;20617;-63
2022/09/24 04:43:02;;;;;;;27.73;24.80;;;12.90;99.90;;;;;;5008765;28;20232;-63
2022/09/24 04:45:31;;;;;;;27.80;24.33;;;12.90;99.90;;;;;;5006974;28;20224;-63
2022/09/24 04:47:59;;;;;;;27.00;24.10;;;12.90;99.90;;;;;;5014944;28;20248;-63
2022/09/24 04:50:32;;;;;;;29.57;24.93;;;12.90;99.90;;;;;;5011853;28;20236;-63
2022/09/24 04:53:01;;;;;;;29.67;25.70;;;12.90;99.90;;;;;;5015613;28;20742;-63
2022/09/24 04:55:30;;;;;;;28.70;25.70;;;12.90;99.90;;;;;;5011872;28;20569;-63
2022/09/24 04:57:59;;;;;;;30.53;26.43;;;13.00;99.90;;;;;;5015982;28;20242;-63
2022/09/24 05:00:27;;;;;;;28.63;25.53;;;13.00;99.90;;;;;;5015292;28;20224;-63
2022/09/24 05:03:02;;;;;;;28.97;25.80;;;13.00;99.90;;;;;;5015574;28;20225;-64
2022/09/24 05:05:31;;;;;;;30.43;27.10;;;13.00;99.90;;;;;;5012105;28;20236;-64
2022/09/24 05:08:00;;;;;;;28.43;25.30;;;13.00;99.90;;;;;;5013121;28;20284;-63
2022/09/24 05:10:30;;;;;;;30.30;27.00;;;13.00;99.90;;;;;;5003351;28;20249;-62
2022/09/24 05:12:58;;;;;;;27.27;24.27;;;13.00;99.90;;;;;;5008854;28;20228;-63
2022/09/24 05:15:26;;;;;;;28.83;25.73;;;13.00;99.90;;;;;;5008927;28;20228;-63
2022/09/24 05:17:54;;;;;;;27.97;24.50;;;13.10;99.90;;;;;;5013977;28;20236;-63
2022/09/24 05:20:24;;;;;;;26.90;23.07;;;13.10;99.90;;;;;;4998442;28;20699;-63
2022/09/24 05:22:52;;;;;;;27.83;24.83;;;13.10;99.90;;;;;;5011664;28;20244;-63
2022/09/24 05:25:21;;;;;;;27.30;24.40;;;13.00;99.90;;;;;;5012509;28;20228;-63
2022/09/24 05:27:50;;;;;;;28.83;25.13;;;13.00;99.90;;;;;;5014779;28;20247;-63
2022/09/24 05:30:20;;;;;;;28.30;25.30;;;13.00;99.90;;;;;;5009547;28;20229;-63
2022/09/24 05:32:51;;;;;;;27.30;24.30;;;13.00;99.90;;;;;;5012227;28;20228;-63
2022/09/24 05:35:20;;;;;;;28.20;25.07;;;13.00;99.90;;;;;;5011833;28;20334;-62
2022/09/24 05:37:52;;;;;;;30.60;25.00;;;13.10;99.90;;;;;;5014601;28;20584;-62
2022/09/24 05:43:06;;;;;;;27.93;24.97;;;13.00;99.90;;;;;;5010993;28;20221;-63
2022/09/24 05:45:34;;;;;;;27.27;24.37;;;13.00;99.90;;;;;;5011448;28;20235;-63
2022/09/24 05:48:02;;;;;;;26.43;23.53;;;13.00;99.90;;;;;;5014096;28;20243;-62
2022/09/24 05:50:33;;;;;;;26.40;23.63;;;13.00;99.90;;;;;;5010352;28;20225;-63
2022/09/24 05:53:04;;;;;;;26.80;23.90;;;13.00;99.90;;;;;;5009759;28;20248;-63
2022/09/24 05:55:32;;;;;;;26.53;23.73;;;13.00;99.90;;;;;;5002741;28;20316;-62
2022/09/24 05:58:05;;;;;;;26.53;23.73;;;13.00;99.90;;;;;;5007325;28;20240;-62
2022/09/24 06:00:34;;;;;;;26.67;23.77;;;13.00;99.90;;;;;;5002737;28;20696;-63
2022/09/24 06:03:06;;;;;;;27.17;24.10;;;13.00;99.90;;;;;;5003517;28;20236;-63
2022/09/24 06:05:35;;;;;;;27.70;24.73;;;13.00;99.90;;;;;;4994528;28;20228;-63
2022/09/24 06:08:05;;;;;;;25.60;23.00;;;13.00;99.90;;;;;;4997150;28;20236;-63
2022/09/24 06:10:33;;;;;;;26.07;23.33;;;13.00;99.90;;;;;;4999977;28;20229;-62
2022/09/24 06:13:01;;;;;;;25.93;22.70;;;13.00;99.90;;;;;;5001462;28;20232;-63
2022/09/24 06:15:29;;;;;;;24.57;22.07;;;13.00;99.90;;;;;;4993687;28;20272;-63
2022/09/24 06:17:58;;;;;;;25.17;22.47;;;13.00;99.90;;;;;;4995040;28;20263;-63
2022/09/24 06:20:26;;;;;;;22.97;20.20;;;13.00;99.90;;;;;;4995396;28;20237;-63
2022/09/24 06:22:56;;;;;;;24.33;21.77;;;13.10;99.90;;;;;;5004492;28;20228;-62
2022/09/24 06:25:26;;;;;;;23.60;21.03;;;13.10;99.90;;;;;;4994228;28;20233;-62
2022/09/24 06:27:59;;;;;;;23.60;21.10;;;13.00;99.90;;;;;;4994272;28;20257;-63
2022/09/24 06:30:28;;;;;;;23.63;21.13;;;13.00;99.90;;;;;;4994024;28;20284;-62
2022/09/24 06:33:02;;;;;;;23.83;20.70;;;13.00;99.90;;;;;;4994894;28;20554;-63
2022/09/24 06:35:30;;;;;;;22.63;20.03;;;13.00;99.90;;;;;;4993020;28;20245;-62
2022/09/24 06:37:58;;;;;;;22.73;20.43;;;13.00;99.90;;;;;;4994299;28;20229;-63
2022/09/24 06:40:27;;;;;;;23.87;21.23;;;13.10;99.90;;;;;;5003517;28;20239;-62
2022/09/24 06:43:02;;;;;;;22.43;20.13;;;13.10;99.90;;;;;;4999532;28;20229;-63
2022/09/24 06:45:30;;;;;;;22.63;19.97;;;13.00;99.90;;;;;;5000634;28;20304;-62
2022/09/24 06:48:01;;;;;;;23.50;21.07;;;13.00;99.90;;;;;;4995752;28;20648;-63
2022/09/24 06:50:31;;;;;;;23.00;20.53;;;13.00;99.90;;;;;;4995506;28;20225;-63
2022/09/24 06:52:59;;;;;;;23.10;19.93;;;13.10;99.90;;;;;;5001830;28;20240;-63
2022/09/24 06:55:29;;;;;;;20.03;17.90;;;13.10;99.90;;;;;;4996488;28;20228;-63
2022/09/24 06:58:05;;;;;;;20.53;18.43;;;13.20;99.90;;;;;;4995455;28;20241;-62
2022/09/24 07:00:34;;;;;;;22.03;19.73;;;13.20;99.90;;;;;;4993816;28;20733;-62
2022/09/24 07:03:03;;;;;;;20.77;18.37;;;13.20;99.90;;;;;;4998512;28;20239;-63
2022/09/24 07:05:31;;;;;;;20.70;18.70;;;13.20;99.90;;;;;;4996229;28;20232;-63
2022/09/24 07:07:59;;;;;;;20.87;18.67;;;13.20;99.90;;;;;;4992719;28;20585;-63
2022/09/24 07:10:28;;;;;;;20.83;18.33;;;13.30;99.90;;;;;;4989437;28;20233;-62
2022/09/24 07:12:56;;;;;;;19.60;17.70;;;13.30;99.90;;;;;;5004510;28;20256;-63
2022/09/24 07:15:24;;;;;;;20.47;18.23;;;13.20;99.90;;;;;;4996122;28;20230;-60
2022/09/24 07:17:56;;;;;;;19.50;17.40;;;13.30;99.90;;;;;;5001556;28;20232;-63
2022/09/24 07:20:26;;;;;;;19.13;17.23;;;13.30;99.90;;;;;;5002239;28;20612;-63
2022/09/24 07:22:55;;;;;;;19.20;17.23;;;13.20;99.90;;;;;;5005086;28;20229;-62
2022/09/24 07:25:23;;;;;;;19.47;17.37;;;13.30;99.90;;;;;;4996706;28;20287;-63
2022/09/24 07:27:52;;;;;;;19.17;17.10;;;13.30;99.90;;;;;;4999745;28;20232;-62
2022/09/24 07:30:20;;;;;;;18.77;16.73;;;13.30;99.90;;;;;;4994959;28;20232;-62
2022/09/24 07:32:54;;;;;;;19.87;17.87;;;13.30;99.90;;;;;;4997904;28;20237;-62
2022/09/24 07:35:23;;;;;;;20.67;18.47;;;13.30;99.90;;;;;;4993242;28;20834;-62
2022/09/24 07:37:57;;;;;;;21.07;18.97;;;13.30;99.90;;;;;;4993517;28;20693;-63
2022/09/24 07:40:25;;;;;;;21.47;19.27;;;13.30;99.90;;;;;;4995731;28;20228;-62
2022/09/24 07:42:55;;;;;;;21.27;19.07;;;13.40;99.90;;;;;;4998749;28;20233;-63
2022/09/24 07:45:26;;;;;;;22.13;19.67;;;13.40;99.90;;;;;;4999440;28;20237;-62
2022/09/24 07:47:58;;;;;;;21.97;18.93;;;13.50;99.90;;;;;;4996664;28;20229;-63
2022/09/24 07:50:28;;;;;;;23.30;20.83;;;13.50;99.90;;;;;;4998397;28;20225;-62
2022/09/24 07:52:56;;;;;;;23.33;21.03;;;13.50;99.90;;;;;;4996445;28;20236;-62
2022/09/24 07:55:24;;;;;;;22.37;19.97;;;13.50;99.90;;;;;;4990679;28;20233;-62
2022/09/24 07:57:55;;;;;;;24.83;21.40;;;13.50;99.90;;;;;;4993250;28;20233;-62
2022/09/24 08:00:25;;;;;;;23.77;21.27;;;13.50;99.90;;;;;;4986864;28;20268;-62
2022/09/24 08:02:55;;;;;;;23.67;20.37;;;13.60;99.90;;;;;;4996069;28;20231;-62
2022/09/24 08:05:23;;;;;;;22.70;20.00;;;13.70;99.90;;;;;;4996939;28;20589;-63
2022/09/24 08:07:52;;;;;;;23.63;21.13;;;13.60;99.90;;;;;;4992884;28;20237;-62
2022/09/24 08:10:20;;;;;;;23.07;20.77;;;13.70;99.90;;;;;;4993871;28;20237;-62
2022/09/24 08:12:48;;;;;;;23.63;20.97;;;13.80;99.90;;;;;;4997732;28;20241;-63
2022/09/24 08:15:18;;;;;;;24.60;21.27;;;13.90;99.90;;;;;;4991128;28;20221;-62
2022/09/24 08:17:46;;;;;;;21.87;19.60;;;13.80;99.90;;;;;;4995289;28;20248;-62
2022/09/24 08:20:14;;;;;;;23.10;20.70;;;13.90;99.90;;;;;;5001075;28;20708;-62
2022/09/24 08:22:42;;;;;;;23.13;20.73;;;13.90;99.90;;;;;;5005881;28;20635;-62
2022/09/24 08:25:10;;;;;;;22.53;20.00;;;13.90;99.90;;;;;;4997323;28;20244;-62
2022/09/24 08:27:38;;;;;;;23.20;20.87;;;14.00;99.90;;;;;;5003729;28;20232;-62
2022/09/24 08:30:08;;;;;;;22.20;19.03;;;14.10;99.90;;;;;;5003495;28;20236;-62
2022/09/24 08:32:37;;;;;;;24.97;21.73;;;14.10;99.90;;;;;;4991951;28;20724;-62
2022/09/24 08:35:07;;;;;;;24.70;21.07;;;14.10;99.90;;;;;;4991270;28;20241;-61
2022/09/24 08:37:36;;;;;;;22.73;20.33;;;14.00;99.90;;;;;;4991798;28;20566;-62
2022/09/24 08:40:04;;;;;;;25.83;23.10;;;14.10;99.90;;;;;;4991822;28;20233;-62
2022/09/24 08:42:39;;;;;;;25.13;22.20;;;14.10;99.90;;;;;;4991756;28;20236;-62
2022/09/24 08:48:00;;;;;;;27.00;21.97;;;14.10;99.90;;;;;;5006103;28;20237;-62
2022/09/24 08:50:31;;;;;;;25.90;23.30;;;14.10;99.90;;;;;;4996239;28;20222;-62
2022/09/24 08:53:11;;;;;;;31.60;26.93;;;14.10;99.90;;;;;;4996907;28;20640;-62
2022/09/24 08:55:42;;;;;;;26.93;24.03;;;14.20;99.90;;;;;;4988217;28;20229;-62
2022/09/24 08:58:31;;;;;;;27.07;23.80;;;14.20;99.90;;;;;;4990666;28;20228;-62
2022/09/24 09:01:11;;;;;;;28.37;25.33;;;14.20;99.90;;;;;;4997178;28;20237;-62
2022/09/24 09:03:46;;;;;;;28.00;25.00;;;14.30;99.90;;;;;;4999839;28;20233;-62
2022/09/24 09:06:46;;;;;;;30.13;26.93;;;14.40;99.90;;;;;;4991582;28;20229;-62
2022/09/24 09:09:18;;;;;;;29.63;25.47;;;14.50;99.90;;;;;;4989099;28;20241;-62
2022/09/24 09:11:49;;;;;;;27.20;24.40;;;14.40;99.90;;;;;;5000816;28;20225;-62
2022/09/24 09:14:20;;;;;;;29.87;26.67;;;14.40;99.90;;;;;;5000335;28;20234;-62
2022/09/24 09:16:53;;;;;;;29.43;26.27;;;14.50;99.90;;;;;;4991589;28;20241;-63
2022/09/24 09:19:27;;;;;;;28.37;25.30;;;14.60;99.90;;;;;;4996257;28;20682;-62
2022/09/24 09:22:00;;;;;;;27.67;24.33;;;14.60;99.90;;;;;;4995958;28;20238;-62
2022/09/24 09:24:41;;;;;;;29.37;26.17;;;14.70;99.90;;;;;;4995834;28;20218;-63
2022/09/24 09:27:13;;;;;;;27.00;24.10;;;14.80;99.90;;;;;;4993042;28;20249;-62
2022/09/24 09:29:42;;;;;;;26.43;23.53;;;14.90;99.90;;;;;;5001660;28;20234;-62
2022/09/24 09:32:23;;;;;;;27.87;24.87;;;15.00;99.90;;;;;;4995433;28;20226;-62
2022/09/24 09:34:59;;;;;;;30.33;26.97;;;15.00;99.90;;;;;;4994196;28;20528;-61
2022/09/24 09:37:31;;;;;;;27.20;24.40;;;15.00;99.90;;;;;;4998381;28;20237;-62
2022/09/24 09:40:09;;;;;;;28.73;24.87;;;14.90;99.90;;;;;;4997462;28;20224;-62
2022/09/24 09:42:39;;;;;;;26.30;23.53;;;14.80;99.90;;;;;;4999843;28;20357;-62
2022/09/24 09:45:24;;;;;;;27.43;24.40;;;14.80;99.90;;;;;;5000000;28;20253;-62
2022/09/24 09:47:57;;;;;;;30.03;25.90;;;14.90;99.90;;;;;;4993524;28;20237;-62
2022/09/24 09:50:30;;;;;;;27.83;24.83;;;14.90;99.90;;;;;;4995570;28;20230;-61
2022/09/24 09:52:58;;;;;;;27.67;24.77;;;14.80;99.90;;;;;;4995833;28;20232;-61
2022/09/24 09:55:28;;;;;;;29.37;26.17;;;14.70;99.90;;;;;;4994528;28;20238;-60
2022/09/24 09:58:10;;;;;;;29.30;24.93;;;14.60;99.90;;;;;;4995689;28;20249;-61
2022/09/24 10:00:38;;;;;;;28.40;25.30;;;14.60;99.90;;;;;;4999260;28;20237;-62
2022/09/24 10:03:06;;;;;;;31.80;26.70;;;14.80;99.90;;;;;;4995621;28;20586;-61
2022/09/24 10:05:36;;;;;;;32.10;28.27;;;14.80;99.90;;;;;;4990482;28;20234;-62
2022/09/24 10:08:08;;;;;;;31.90;26.70;;;14.90;99.90;;;;;;4994884;28;20225;-62
2022/09/24 10:10:38;;;;;;;28.73;24.73;;;14.90;99.90;;;;;;4995744;28;20285;-62
2022/09/24 10:13:08;;;;;;;28.93;25.90;;;14.80;99.90;;;;;;4999730;28;20313;-62
2022/09/24 10:15:48;;;;;;;31.43;26.57;;;14.90;99.90;;;;;;4990298;28;20226;-62
2022/09/24 10:18:17;;;;;;;30.70;25.83;;;14.90;99.90;;;;;;4995131;28;20229;-62
2022/09/24 10:20:48;;;;;;;34.73;28.40;;;14.90;99.90;;;;;;4994950;28;20261;-62
2022/09/24 10:23:21;;;;;;;35.00;28.97;;;15.00;99.90;;;;;;4995147;28;20693;-62
2022/09/24 10:25:53;;;;;;;31.03;27.10;;;14.90;99.90;;;;;;4991420;28;20230;-62
2022/09/24 10:31:11;;;;;;;34.77;28.07;;;15.00;99.90;;;;;;4994341;28;20246;-62
2022/09/24 10:33:42;;;;;;;30.83;25.73;;;15.00;99.90;;;;;;5001573;28;20348;-62
2022/09/24 10:36:18;;;;;;;30.87;26.30;;;15.00;99.90;;;;;;4990847;28;20622;-62
2022/09/24 10:38:47;;;;;;;31.27;26.03;;;15.00;99.90;;;;;;4993337;28;20252;-62
2022/09/24 10:41:24;;;;;;;33.77;27.57;;;15.00;99.90;;;;;;4994602;28;20705;-61
2022/09/24 10:43:53;;;;;;;33.33;27.33;;;15.20;99.90;;;;;;5011850;28;20232;-62
2022/09/24 10:46:42;;;;;;;30.10;26.23;;;15.20;99.90;;;;;;4993793;28;20237;-61
2022/09/24 10:49:23;;;;;;;33.50;29.33;;;15.10;99.90;;;;;;4986355;28;20230;-61
2022/09/24 10:51:59;;;;;;;31.63;27.03;;;15.20;99.90;;;;;;4994140;28;20229;-61
2022/09/24 10:54:48;;;;;;;31.90;25.87;;;15.30;99.90;;;;;;4994105;28;20567;-60
2022/09/24 10:57:26;;;;;;;28.80;25.53;;;15.40;99.90;;;;;;4991855;28;20390;-62
2022/09/24 11:00:03;;;;;;;35.73;28.27;;;15.50;99.90;;;;;;4994395;28;20714;-61
2022/09/24 11:03:07;;;;;;;35.43;29.00;;;15.40;99.90;;;;;;4993587;28;20241;-62
2022/09/24 11:05:40;;;;;;;34.40;28.33;;;15.60;99.90;;;;;;4972372;28;20232;-61
2022/09/24 11:08:18;;;;;;;33.23;28.10;;;15.70;99.90;;;;;;4993961;28;20231;-62
2022/09/24 11:11:08;;;;;;;33.13;28.10;;;15.60;99.90;;;;;;4994368;28;20238;-62
2022/09/24 11:13:45;;;;;;;31.10;27.03;;;15.60;99.90;;;;;;5001786;28;20589;-61
2022/09/24 11:16:41;;;;;;;32.83;27.40;;;15.70;99.90;;;;;;4984350;28;20685;-61
2022/09/24 11:19:20;;;;;;;32.73;27.73;;;15.70;99.90;;;;;;4985700;28;20240;-61
2022/09/24 11:22:10;;;;;;;34.13;29.60;;;15.50;99.90;;;;;;4993892;28;20261;-61
2022/09/24 11:25:06;;;;;;;32.70;27.80;;;15.60;99.90;;;;;;4993407;28;20225;-61
2022/09/24 11:27:47;;;;;;;32.90;28.23;;;15.70;99.90;;;;;;4993033;28;20229;-61
2022/09/24 11:30:18;;;;;;;34.40;28.17;;;15.80;99.90;;;;;;4977539;28;20578;-61
2022/09/24 11:33:01;;;;;;;31.83;28.27;;;15.80;99.90;;;;;;4993805;28;20244;-62
2022/09/24 11:35:55;;;;;;;33.43;28.87;;;15.80;99.90;;;;;;4989161;28;20237;-61
2022/09/24 11:38:36;;;;;;;34.03;28.90;;;15.80;99.90;;;;;;4987332;28;20230;-61
2022/09/24 11:41:22;;;;;;;33.63;29.63;;;15.80;99.90;;;;;;5001557;28;20233;-61
2022/09/24 11:44:16;;;;;;;32.60;26.53;;;15.80;99.90;;;;;;4999270;28;20233;-61
2022/09/24 11:46:55;;;;;;;30.23;26.77;;;15.80;99.90;;;;;;4989376;28;20226;-61
2022/09/24 11:49:45;;;;;;;30.57;27.27;;;15.70;99.90;;;;;;4995758;28;20226;-61
2022/09/24 11:52:21;;;;;;;31.53;26.83;;;15.80;99.90;;;;;;4993490;28;20245;-61
2022/09/24 11:54:57;;;;;;;30.27;26.63;;;15.90;99.90;;;;;;4993496;28;20241;-61
2022/09/24 11:57:29;;;;;;;29.17;25.00;;;15.90;99.90;;;;;;4997194;28;20232;-61
2022/09/24 12:00:03;;;;;;;29.63;25.43;;;15.80;99.90;;;;;;4994303;28;20229;-61
2022/09/24 12:02:36;;;;;;;29.70;26.47;;;15.70;99.90;;;;;;4999662;28;20324;-62
2022/09/24 12:05:08;;;;;;;29.03;25.50;;;15.60;99.90;;;;;;5005905;28;20236;-61
2022/09/24 12:07:42;;;;;;;27.63;24.10;;;15.60;99.90;;;;;;4992666;28;20277;-61
2022/09/24 12:10:28;;;;;;;27.07;24.13;;;15.70;99.90;;;;;;4984712;28;20701;-61
2022/09/24 12:13:04;;;;;;;27.40;23.33;;;15.70;99.90;;;;;;4999519;28;20567;-61
2022/09/24 12:15:46;;;;;;;26.37;22.80;;;15.60;99.90;;;;;;4996600;28;20572;-61
2022/09/24 12:18:18;;;;;;;27.10;23.23;;;15.50;99.90;;;;;;4987866;28;20228;-61
2022/09/24 12:20:51;;;;;;;29.50;23.90;;;15.50;99.90;;;;;;5002004;28;20229;-61
2022/09/24 12:23:26;;;;;;;26.10;22.77;;;15.40;99.90;;;;;;4994741;28;20225;-61
2022/09/24 12:25:56;;;;;;;25.97;22.97;;;15.40;99.90;;;;;;4988728;28;20582;-61
2022/09/24 12:34:18;;;;;;;23.37;20.87;;;15.50;99.90;;;;;;5000153;28;20299;-62
2022/09/24 12:36:57;;;;;;;24.63;22.03;;;15.60;99.90;;;;;;4990651;28;20237;-61
2022/09/24 12:39:28;;;;;;;25.70;21.90;;;15.50;99.90;;;;;;4993035;28;20229;-61
2022/09/24 12:42:01;;;;;;;27.47;22.57;;;15.60;99.90;;;;;;5000774;28;20713;-61
2022/09/24 12:44:39;;;;;;;24.97;21.87;;;15.60;99.90;;;;;;4999663;28;20228;-61
2022/09/24 12:47:17;;;;;;;28.53;25.43;;;15.60;99.90;;;;;;4993791;28;20567;-61
2022/09/24 12:49:53;;;;;;;26.90;23.73;;;15.50;99.90;;;;;;4992976;28;20245;-61
2022/09/24 12:52:28;;;;;;;26.20;22.33;;;15.40;99.90;;;;;;4973690;28;20612;-61
2022/09/24 12:55:01;;;;;;;26.17;22.73;;;15.40;99.90;;;;;;4990052;28;20237;-61
2022/09/24 12:57:33;;;;;;;25.77;21.30;;;15.40;99.90;;;;;;4999021;28;20225;-61
2022/09/24 13:00:05;;;;;;;25.17;21.33;;;15.40;99.90;;;;;;4993647;28;20226;-61
2022/09/24 13:02:46;;;;;;;23.00;20.27;;;15.40;99.90;;;;;;4992203;28;20234;-61
2022/09/24 13:05:18;;;;;;;23.30;20.90;;;15.40;99.90;;;;;;4988851;28;20280;-61
2022/09/24 13:07:57;;;;;;;24.40;21.77;;;15.40;99.90;;;;;;4992643;28;20234;-61
2022/09/24 13:10:28;;;;;;;23.70;20.30;;;15.40;99.90;;;;;;4996036;28;20233;-61
2022/09/24 13:12:58;;;;;;;23.30;20.83;;;15.40;99.90;;;;;;5002450;28;20626;-61